sensor_id;sensor_type;location;lat;lon;timestamp;temperature;humidity
21033;DHT22;10675;47.976;7.824;2023-07-13T00:01:16;21.00;99.90
21033;DHT22;10675;47.976;7.824;2023-07-13T00:03:42;21.00;99.90
21033;DHT22;10675;47.976;7.824;2023-07-13T00:06:08;21.10;99.90
21033;DHT22;10675;47.976;7.824;2023-07-13T00:08:34;21.10;99.90
21033;DHT22;10675;47.976;7.824;2023-07-13T00:11:01;21.20;99.90
21033;DHT22;10675;47.976;7.824;2023-07-13T00:13:27;21.20;99.90
21033;DHT22;10675;47.976;7.824;2023-07-13T00:15:53;21.30;99.90
21033;DHT22;10675;47.976;7.824;2023-07-13T00:18:19;21.20;99.90
21033;DHT22;10675;47.976;7.824;2023-07-13T00:20:45;21.20;99.90
21033;DHT22;10675;47.976;7.824;2023-07-13T00:23:11;21.10;99.90
21033;DHT22;10675;47.976;7.824;2023-07-13T00:25:36;21.10;99.90
21033;DHT22;10675;47.976;7.824;2023-07-13T00:28:02;21.10;99.90
21033;DHT22;10675;47.976;7.824;2023-07-13T00:30:28;21.10;99.90
21033;DHT22;10675;47.976;7.824;2023-07-13T00:32:53;21.10;99.90
21033;DHT22;10675;47.976;7.824;2023-07-13T00:35:19;21.00;99.90
21033;DHT22;10675;47.976;7.824;2023-07-13T00:37:45;21.00;99.90
21033;DHT22;10675;47.976;7.824;2023-07-13T00:40:15;21.00;99.90
21033;DHT22;10675;47.976;7.824;2023-07-13T00:42:41;21.00;99.90
21033;DHT22;10675;47.976;7.824;2023-07-13T00:47:52;20.70;99.90
21033;DHT22;10675;47.976;7.824;2023-07-13T00:50:20;20.70;99.90
21033;DHT22;10675;47.976;7.824;2023-07-13T00:52:49;20.70;99.90
21033;DHT22;10675;47.976;7.824;2023-07-13T00:55:16;20.70;99.90
21033;DHT22;10675;47.976;7.824;2023-07-13T00:57:43;20.70;99.90
21033;DHT22;10675;47.976;7.824;2023-07-13T01:00:09;20.70;99.90
21033;DHT22;10675;47.976;7.824;2023-07-13T01:02:39;20.80;99.90
21033;DHT22;10675;47.976;7.824;2023-07-13T01:05:13;20.80;99.90
21033;DHT22;10675;47.976;7.824;2023-07-13T01:07:43;20.80;99.90
21033;DHT22;10675;47.976;7.824;2023-07-13T01:10:10;20.70;99.90
21033;DHT22;10675;47.976;7.824;2023-07-13T01:12:36;20.70;99.90
21033;DHT22;10675;47.976;7.824;2023-07-13T01:15:03;20.70;99.90
21033;DHT22;10675;47.976;7.824;2023-07-13T01:17:30;20.60;99.90
21033;DHT22;10675;47.976;7.824;2023-07-13T01:19:56;20.50;99.90
21033;DHT22;10675;47.976;7.824;2023-07-13T01:22:22;20.60;99.90
21033;DHT22;10675;47.976;7.824;2023-07-13T01:24:53;20.60;99.90
21033;DHT22;10675;47.976;7.824;2023-07-13T01:27:24;20.60;99.90
21033;DHT22;10675;47.976;7.824;2023-07-13T01:29:51;20.60;99.90
21033;DHT22;10675;47.976;7.824;2023-07-13T01:32:21;20.70;99.90
21033;DHT22;10675;47.976;7.824;2023-07-13T01:34:50;20.60;99.90
21033;DHT22;10675;47.976;7.824;2023-07-13T01:37:16;20.60;99.90
21033;DHT22;10675;47.976;7.824;2023-07-13T01:39:42;20.60;99.90
21033;DHT22;10675;47.976;7.824;2023-07-13T01:42:08;20.60;99.90
21033;DHT22;10675;47.976;7.824;2023-07-13T01:50:52;20.40;99.90
21033;DHT22;10675;47.976;7.824;2023-07-13T01:53:18;20.30;99.90
21033;DHT22;10675;47.976;7.824;2023-07-13T01:55:43;20.40;99.90
21033;DHT22;10675;47.976;7.824;2023-07-13T01:58:09;20.30;99.90
21033;DHT22;10675;47.976;7.824;2023-07-13T02:00:34;20.20;99.90
21033;DHT22;10675;47.976;7.824;2023-07-13T02:03:00;20.20;99.90
21033;DHT22;10675;47.976;7.824;2023-07-13T02:05:25;20.20;99.90
21033;DHT22;10675;47.976;7.824;2023-07-13T02:07:51;20.00;99.90
21033;DHT22;10675;47.976;7.824;2023-07-13T02:10:18;20.00;99.90
21033;DHT22;10675;47.976;7.824;2023-07-13T02:12:44;19.90;99.90
21033;DHT22;10675;47.976;7.824;2023-07-13T02:15:10;19.80;99.90
21033;DHT22;10675;47.976;7.824;2023-07-13T02:17:36;19.70;99.90
21033;DHT22;10675;47.976;7.824;2023-07-13T02:20:02;19.60;99.90
21033;DHT22;10675;47.976;7.824;2023-07-13T02:22:28;19.60;99.90
21033;DHT22;10675;47.976;7.824;2023-07-13T02:24:54;19.60;99.90
21033;DHT22;10675;47.976;7.824;2023-07-13T02:27:19;19.50;99.90
21033;DHT22;10675;47.976;7.824;2023-07-13T02:29:45;19.60;99.90
21033;DHT22;10675;47.976;7.824;2023-07-13T02:32:10;19.60;99.90
21033;DHT22;10675;47.976;7.824;2023-07-13T02:34:36;19.70;99.90
21033;DHT22;10675;47.976;7.824;2023-07-13T02:37:02;19.60;99.90
21033;DHT22;10675;47.976;7.824;2023-07-13T02:39:27;19.60;99.90
21033;DHT22;10675;47.976;7.824;2023-07-13T02:41:53;19.50;99.90
21033;DHT22;10675;47.976;7.824;2023-07-13T02:44:18;19.50;99.90
21033;DHT22;10675;47.976;7.824;2023-07-13T02:46:44;19.50;99.90
21033;DHT22;10675;47.976;7.824;2023-07-13T02:49:10;19.50;99.90
21033;DHT22;10675;47.976;7.824;2023-07-13T02:51:35;19.40;99.90
21033;DHT22;10675;47.976;7.824;2023-07-13T02:54:04;19.50;99.90
21033;DHT22;10675;47.976;7.824;2023-07-13T02:56:31;19.50;99.90
21033;DHT22;10675;47.976;7.824;2023-07-13T02:58:57;19.50;99.90
21033;DHT22;10675;47.976;7.824;2023-07-13T03:01:24;19.40;99.70
21033;DHT22;10675;47.976;7.824;2023-07-13T03:03:50;19.30;99.90
21033;DHT22;10675;47.976;7.824;2023-07-13T03:06:16;19.30;99.90
21033;DHT22;10675;47.976;7.824;2023-07-13T03:08:42;19.30;99.90
21033;DHT22;10675;47.976;7.824;2023-07-13T03:11:11;19.30;99.90
21033;DHT22;10675;47.976;7.824;2023-07-13T03:13:38;19.20;99.90
21033;DHT22;10675;47.976;7.824;2023-07-13T03:16:04;19.20;99.90
21033;DHT22;10675;47.976;7.824;2023-07-13T03:18:30;19.20;99.90
21033;DHT22;10675;47.976;7.824;2023-07-13T03:20:56;19.20;99.90
21033;DHT22;10675;47.976;7.824;2023-07-13T03:23:22;19.20;99.90
21033;DHT22;10675;47.976;7.824;2023-07-13T03:25:48;19.10;99.90
21033;DHT22;10675;47.976;7.824;2023-07-13T03:28:14;19.10;99.90
21033;DHT22;10675;47.976;7.824;2023-07-13T03:30:40;19.00;99.90
21033;DHT22;10675;47.976;7.824;2023-07-13T03:33:06;19.00;99.90
21033;DHT22;10675;47.976;7.824;2023-07-13T03:35:32;19.00;99.90
21033;DHT22;10675;47.976;7.824;2023-07-13T03:37:58;18.90;99.90
21033;DHT22;10675;47.976;7.824;2023-07-13T03:40:25;18.80;99.90
21033;DHT22;10675;47.976;7.824;2023-07-13T03:42:51;18.70;99.90
21033;DHT22;10675;47.976;7.824;2023-07-13T03:45:17;18.60;99.90
21033;DHT22;10675;47.976;7.824;2023-07-13T03:47:43;18.60;99.90
21033;DHT22;10675;47.976;7.824;2023-07-13T03:50:09;18.70;99.90
21033;DHT22;10675;47.976;7.824;2023-07-13T03:52:34;18.70;99.90
21033;DHT22;10675;47.976;7.824;2023-07-13T03:55:00;18.80;99.90
21033;DHT22;10675;47.976;7.824;2023-07-13T03:57:26;18.70;99.90
21033;DHT22;10675;47.976;7.824;2023-07-13T03:59:51;18.50;99.90
21033;DHT22;10675;47.976;7.824;2023-07-13T04:02:17;18.60;99.90
21033;DHT22;10675;47.976;7.824;2023-07-13T04:04:43;18.60;99.90
21033;DHT22;10675;47.976;7.824;2023-07-13T04:07:09;18.60;99.90
21033;DHT22;10675;47.976;7.824;2023-07-13T04:09:35;18.60;99.90
21033;DHT22;10675;47.976;7.824;2023-07-13T04:12:00;18.50;99.90
21033;DHT22;10675;47.976;7.824;2023-07-13T04:14:26;18.80;99.90
21033;DHT22;10675;47.976;7.824;2023-07-13T04:16:52;18.80;99.90
21033;DHT22;10675;47.976;7.824;2023-07-13T04:19:20;18.80;99.90
21033;DHT22;10675;47.976;7.824;2023-07-13T04:21:45;18.80;99.90
21033;DHT22;10675;47.976;7.824;2023-07-13T04:24:11;18.90;99.90
21033;DHT22;10675;47.976;7.824;2023-07-13T04:26:36;18.90;99.90
21033;DHT22;10675;47.976;7.824;2023-07-13T04:29:04;18.90;99.90
21033;DHT22;10675;47.976;7.824;2023-07-13T04:31:31;18.90;99.90
21033;DHT22;10675;47.976;7.824;2023-07-13T04:33:56;18.80;99.90
21033;DHT22;10675;47.976;7.824;2023-07-13T04:36:22;18.80;99.90
21033;DHT22;10675;47.976;7.824;2023-07-13T04:38:48;18.70;99.90
21033;DHT22;10675;47.976;7.824;2023-07-13T04:41:14;18.70;99.90
21033;DHT22;10675;47.976;7.824;2023-07-13T04:43:41;18.80;99.90
21033;DHT22;10675;47.976;7.824;2023-07-13T04:46:08;18.80;99.90
21033;DHT22;10675;47.976;7.824;2023-07-13T04:48:36;18.90;99.90
21033;DHT22;10675;47.976;7.824;2023-07-13T04:51:03;19.00;99.90
21033;DHT22;10675;47.976;7.824;2023-07-13T04:53:29;18.90;99.90
21033;DHT22;10675;47.976;7.824;2023-07-13T04:55:55;18.90;99.90
21033;DHT22;10675;47.976;7.824;2023-07-13T04:58:21;18.80;99.90
21033;DHT22;10675;47.976;7.824;2023-07-13T05:00:47;18.90;99.90
21033;DHT22;10675;47.976;7.824;2023-07-13T05:03:13;18.90;99.90
21033;DHT22;10675;47.976;7.824;2023-07-13T05:05:38;19.10;99.90
21033;DHT22;10675;47.976;7.824;2023-07-13T05:08:04;19.20;99.90
21033;DHT22;10675;47.976;7.824;2023-07-13T05:10:29;19.20;99.90
21033;DHT22;10675;47.976;7.824;2023-07-13T05:12:55;19.10;99.90
21033;DHT22;10675;47.976;7.824;2023-07-13T05:15:22;19.10;99.90
21033;DHT22;10675;47.976;7.824;2023-07-13T05:17:48;19.20;99.90
21033;DHT22;10675;47.976;7.824;2023-07-13T05:20:15;19.40;99.90
21033;DHT22;10675;47.976;7.824;2023-07-13T05:22:41;19.60;99.90
21033;DHT22;10675;47.976;7.824;2023-07-13T05:25:07;19.80;99.90
21033;DHT22;10675;47.976;7.824;2023-07-13T05:27:34;20.00;99.90
21033;DHT22;10675;47.976;7.824;2023-07-13T05:30:00;20.00;99.90
21033;DHT22;10675;47.976;7.824;2023-07-13T05:32:26;20.10;99.90
21033;DHT22;10675;47.976;7.824;2023-07-13T05:34:52;20.30;99.90
21033;DHT22;10675;47.976;7.824;2023-07-13T05:37:18;20.40;99.90
21033;DHT22;10675;47.976;7.824;2023-07-13T05:39:43;20.40;99.90
21033;DHT22;10675;47.976;7.824;2023-07-13T05:42:09;20.40;99.90
21033;DHT22;10675;47.976;7.824;2023-07-13T05:44:35;20.50;99.90
21033;DHT22;10675;47.976;7.824;2023-07-13T05:47:00;20.60;99.90
21033;DHT22;10675;47.976;7.824;2023-07-13T05:49:26;20.70;99.90
21033;DHT22;10675;47.976;7.824;2023-07-13T05:51:51;20.90;99.90
21033;DHT22;10675;47.976;7.824;2023-07-13T05:54:17;21.10;99.90
21033;DHT22;10675;47.976;7.824;2023-07-13T05:56:42;21.30;99.90
21033;DHT22;10675;47.976;7.824;2023-07-13T05:59:08;21.40;99.90
21033;DHT22;10675;47.976;7.824;2023-07-13T06:01:34;21.40;99.90
21033;DHT22;10675;47.976;7.824;2023-07-13T06:03:59;21.30;99.90
21033;DHT22;10675;47.976;7.824;2023-07-13T06:06:25;21.30;99.90
21033;DHT22;10675;47.976;7.824;2023-07-13T06:08:51;21.30;99.90
21033;DHT22;10675;47.976;7.824;2023-07-13T06:11:22;21.30;99.90
21033;DHT22;10675;47.976;7.824;2023-07-13T06:13:48;21.50;99.90
21033;DHT22;10675;47.976;7.824;2023-07-13T06:16:14;21.40;99.90
21033;DHT22;10675;47.976;7.824;2023-07-13T06:18:40;21.40;99.90
21033;DHT22;10675;47.976;7.824;2023-07-13T06:21:19;21.40;99.90
21033;DHT22;10675;47.976;7.824;2023-07-13T06:23:46;21.40;99.30
21033;DHT22;10675;47.976;7.824;2023-07-13T06:26:16;21.30;97.80
21033;DHT22;10675;47.976;7.824;2023-07-13T06:28:43;21.40;97.90
21033;DHT22;10675;47.976;7.824;2023-07-13T06:31:10;21.60;97.30
21033;DHT22;10675;47.976;7.824;2023-07-13T06:33:36;21.70;96.90
21033;DHT22;10675;47.976;7.824;2023-07-13T06:36:03;21.60;94.60
21033;DHT22;10675;47.976;7.824;2023-07-13T06:38:29;21.70;95.60
21033;DHT22;10675;47.976;7.824;2023-07-13T06:40:54;21.90;94.90
21033;DHT22;10675;47.976;7.824;2023-07-13T06:43:20;21.90;95.50
21033;DHT22;10675;47.976;7.824;2023-07-13T06:45:46;21.90;93.80
21033;DHT22;10675;47.976;7.824;2023-07-13T06:48:17;21.90;93.60
21033;DHT22;10675;47.976;7.824;2023-07-13T06:50:44;22.00;94.00
21033;DHT22;10675;47.976;7.824;2023-07-13T06:53:11;22.00;95.00
21033;DHT22;10675;47.976;7.824;2023-07-13T06:55:36;22.00;95.30
21033;DHT22;10675;47.976;7.824;2023-07-13T06:58:02;22.40;93.10
21033;DHT22;10675;47.976;7.824;2023-07-13T07:00:28;22.30;91.20
21033;DHT22;10675;47.976;7.824;2023-07-13T07:02:53;22.20;91.10
21033;DHT22;10675;47.976;7.824;2023-07-13T07:05:19;22.20;92.60
21033;DHT22;10675;47.976;7.824;2023-07-13T07:07:47;22.30;92.70
21033;DHT22;10675;47.976;7.824;2023-07-13T07:10:13;22.50;90.90
21033;DHT22;10675;47.976;7.824;2023-07-13T07:12:38;22.50;91.40
21033;DHT22;10675;47.976;7.824;2023-07-13T07:15:04;22.50;90.40
21033;DHT22;10675;47.976;7.824;2023-07-13T07:17:30;22.60;90.80
21033;DHT22;10675;47.976;7.824;2023-07-13T07:19:56;22.50;90.10
21033;DHT22;10675;47.976;7.824;2023-07-13T07:22:21;22.60;90.20
21033;DHT22;10675;47.976;7.824;2023-07-13T07:24:47;22.60;89.10
21033;DHT22;10675;47.976;7.824;2023-07-13T07:27:12;22.70;90.20
21033;DHT22;10675;47.976;7.824;2023-07-13T07:29:38;22.80;90.40
21033;DHT22;10675;47.976;7.824;2023-07-13T07:32:04;22.90;90.30
21033;DHT22;10675;47.976;7.824;2023-07-13T07:34:30;23.00;90.10
21033;DHT22;10675;47.976;7.824;2023-07-13T07:37:00;23.20;88.90
21033;DHT22;10675;47.976;7.824;2023-07-13T07:39:26;23.20;88.60
21033;DHT22;10675;47.976;7.824;2023-07-13T07:41:52;23.10;87.80
21033;DHT22;10675;47.976;7.824;2023-07-13T07:44:18;23.00;84.00
21033;DHT22;10675;47.976;7.824;2023-07-13T07:46:43;23.00;83.00
21033;DHT22;10675;47.976;7.824;2023-07-13T07:49:09;23.00;84.80
21033;DHT22;10675;47.976;7.824;2023-07-13T07:51:34;23.20;87.00
21033;DHT22;10675;47.976;7.824;2023-07-13T07:54:00;23.20;82.70
21033;DHT22;10675;47.976;7.824;2023-07-13T07:56:25;23.30;81.40
21033;DHT22;10675;47.976;7.824;2023-07-13T07:58:51;23.40;81.00
21033;DHT22;10675;47.976;7.824;2023-07-13T08:01:17;23.30;82.80
21033;DHT22;10675;47.976;7.824;2023-07-13T08:03:42;23.00;85.00
21033;DHT22;10675;47.976;7.824;2023-07-13T08:06:08;23.20;84.60
21033;DHT22;10675;47.976;7.824;2023-07-13T08:08:34;23.40;83.90
21033;DHT22;10675;47.976;7.824;2023-07-13T08:11:04;23.30;82.90
21033;DHT22;10675;47.976;7.824;2023-07-13T08:13:29;23.00;83.70
21033;DHT22;10675;47.976;7.824;2023-07-13T08:15:55;22.80;82.80
21033;DHT22;10675;47.976;7.824;2023-07-13T08:18:20;22.90;83.80
21033;DHT22;10675;47.976;7.824;2023-07-13T08:20:46;23.00;80.30
21033;DHT22;10675;47.976;7.824;2023-07-13T08:23:12;22.80;79.50
21033;DHT22;10675;47.976;7.824;2023-07-13T08:25:37;22.70;80.20
21033;DHT22;10675;47.976;7.824;2023-07-13T08:28:03;22.80;81.20
21033;DHT22;10675;47.976;7.824;2023-07-13T08:30:29;22.90;80.70
21033;DHT22;10675;47.976;7.824;2023-07-13T08:32:55;23.30;79.80
21033;DHT22;10675;47.976;7.824;2023-07-13T08:35:20;23.10;77.40
21033;DHT22;10675;47.976;7.824;2023-07-13T08:37:46;22.90;79.20
21033;DHT22;10675;47.976;7.824;2023-07-13T08:40:12;23.00;77.90
21033;DHT22;10675;47.976;7.824;2023-07-13T08:42:53;23.10;75.70
21033;DHT22;10675;47.976;7.824;2023-07-13T08:45:38;23.20;75.00
21033;DHT22;10675;47.976;7.824;2023-07-13T08:48:32;23.20;71.80
21033;DHT22;10675;47.976;7.824;2023-07-13T08:51:20;23.00;70.80
21033;DHT22;10675;47.976;7.824;2023-07-13T08:53:50;22.90;73.00
21033;DHT22;10675;47.976;7.824;2023-07-13T08:56:22;23.20;73.10
21033;DHT22;10675;47.976;7.824;2023-07-13T08:58:53;23.40;73.40
21033;DHT22;10675;47.976;7.824;2023-07-13T09:01:44;23.50;71.70
21033;DHT22;10675;47.976;7.824;2023-07-13T09:04:16;23.30;71.10
21033;DHT22;10675;47.976;7.824;2023-07-13T09:09:43;23.60;69.20
21033;DHT22;10675;47.976;7.824;2023-07-13T09:15:35;23.80;70.70
21033;DHT22;10675;47.976;7.824;2023-07-13T09:20:49;23.80;67.60
21033;DHT22;10675;47.976;7.824;2023-07-13T09:23:19;23.90;64.80
21033;DHT22;10675;47.976;7.824;2023-07-13T09:25:47;24.00;65.70
21033;DHT22;10675;47.976;7.824;2023-07-13T09:28:23;24.00;66.00
21033;DHT22;10675;47.976;7.824;2023-07-13T09:33:15;23.90;65.00
21033;DHT22;10675;47.976;7.824;2023-07-13T09:35:40;23.80;66.80
21033;DHT22;10675;47.976;7.824;2023-07-13T09:38:19;24.00;65.90
21033;DHT22;10675;47.976;7.824;2023-07-13T09:43:34;24.20;66.60
21033;DHT22;10675;47.976;7.824;2023-07-13T09:46:00;24.40;63.20
21033;DHT22;10675;47.976;7.824;2023-07-13T09:48:34;24.50;65.20
21033;DHT22;10675;47.976;7.824;2023-07-13T09:51:07;24.60;65.30
21033;DHT22;10675;47.976;7.824;2023-07-13T09:53:38;24.70;66.80
21033;DHT22;10675;47.976;7.824;2023-07-13T09:56:03;24.80;66.40
21033;DHT22;10675;47.976;7.824;2023-07-13T09:58:30;24.90;64.10
21033;DHT22;10675;47.976;7.824;2023-07-13T10:00:59;24.60;64.20
21033;DHT22;10675;47.976;7.824;2023-07-13T10:03:29;24.50;64.50
21033;DHT22;10675;47.976;7.824;2023-07-13T10:06:15;24.40;63.60
21033;DHT22;10675;47.976;7.824;2023-07-13T10:08:41;24.40;64.70
21033;DHT22;10675;47.976;7.824;2023-07-13T10:11:19;24.50;66.00
21033;DHT22;10675;47.976;7.824;2023-07-13T10:13:54;24.50;64.80
21033;DHT22;10675;47.976;7.824;2023-07-13T10:16:26;24.60;62.60
21033;DHT22;10675;47.976;7.824;2023-07-13T10:19:00;24.60;63.10
21033;DHT22;10675;47.976;7.824;2023-07-13T10:21:32;24.80;61.80
21033;DHT22;10675;47.976;7.824;2023-07-13T10:24:25;24.90;61.10
21033;DHT22;10675;47.976;7.824;2023-07-13T10:29:24;25.10;62.70
21033;DHT22;10675;47.976;7.824;2023-07-13T10:31:51;25.50;64.50
21033;DHT22;10675;47.976;7.824;2023-07-13T10:34:17;25.50;60.30
21033;DHT22;10675;47.976;7.824;2023-07-13T10:36:45;25.60;58.50
21033;DHT22;10675;47.976;7.824;2023-07-13T10:39:17;25.40;58.10
21033;DHT22;10675;47.976;7.824;2023-07-13T10:41:44;25.40;56.60
21033;DHT22;10675;47.976;7.824;2023-07-13T10:44:27;25.40;57.90
21033;DHT22;10675;47.976;7.824;2023-07-13T10:46:57;25.80;59.70
21033;DHT22;10675;47.976;7.824;2023-07-13T10:49:24;26.20;59.30
21033;DHT22;10675;47.976;7.824;2023-07-13T10:51:50;26.60;56.40
21033;DHT22;10675;47.976;7.824;2023-07-13T10:54:26;26.40;57.00
21033;DHT22;10675;47.976;7.824;2023-07-13T10:57:15;26.20;54.20
21033;DHT22;10675;47.976;7.824;2023-07-13T10:59:42;25.90;54.50
21033;DHT22;10675;47.976;7.824;2023-07-13T11:02:24;25.60;56.80
21033;DHT22;10675;47.976;7.824;2023-07-13T11:04:53;25.90;58.00
21033;DHT22;10675;47.976;7.824;2023-07-13T11:07:23;25.80;55.50
21033;DHT22;10675;47.976;7.824;2023-07-13T11:09:52;25.30;55.80
21033;DHT22;10675;47.976;7.824;2023-07-13T11:17:38;24.90;58.40
21033;DHT22;10675;47.976;7.824;2023-07-13T11:22:47;25.80;54.70
21033;DHT22;10675;47.976;7.824;2023-07-13T11:27:50;25.30;57.80
21033;DHT22;10675;47.976;7.824;2023-07-13T11:36:00;26.00;58.80
21033;DHT22;10675;47.976;7.824;2023-07-13T11:38:37;26.10;56.70
21033;DHT22;10675;47.976;7.824;2023-07-13T11:41:25;26.10;57.30
21033;DHT22;10675;47.976;7.824;2023-07-13T11:44:05;26.20;57.70
21033;DHT22;10675;47.976;7.824;2023-07-13T11:46:31;26.20;56.50
21033;DHT22;10675;47.976;7.824;2023-07-13T11:48:56;26.30;55.80
21033;DHT22;10675;47.976;7.824;2023-07-13T11:51:25;26.10;55.90
21033;DHT22;10675;47.976;7.824;2023-07-13T11:53:54;26.30;54.00
21033;DHT22;10675;47.976;7.824;2023-07-13T11:56:20;26.30;53.60
21033;DHT22;10675;47.976;7.824;2023-07-13T11:58:50;26.00;54.40
21033;DHT22;10675;47.976;7.824;2023-07-13T12:01:23;26.10;55.90
21033;DHT22;10675;47.976;7.824;2023-07-13T12:03:50;25.90;54.60
21033;DHT22;10675;47.976;7.824;2023-07-13T12:08:50;26.00;56.30
21033;DHT22;10675;47.976;7.824;2023-07-13T12:11:18;26.30;55.10
21033;DHT22;10675;47.976;7.824;2023-07-13T12:13:45;26.40;52.60
21033;DHT22;10675;47.976;7.824;2023-07-13T12:16:14;26.80;55.10
21033;DHT22;10675;47.976;7.824;2023-07-13T12:18:43;27.30;57.40
21033;DHT22;10675;47.976;7.824;2023-07-13T12:21:13;27.00;53.10
21033;DHT22;10675;47.976;7.824;2023-07-13T12:23:44;27.10;52.70
21033;DHT22;10675;47.976;7.824;2023-07-13T12:26:10;27.40;52.70
21033;DHT22;10675;47.976;7.824;2023-07-13T12:28:48;27.50;52.40
21033;DHT22;10675;47.976;7.824;2023-07-13T12:33:57;26.80;51.20
21033;DHT22;10675;47.976;7.824;2023-07-13T12:36:23;27.10;49.60
21033;DHT22;10675;47.976;7.824;2023-07-13T12:38:49;27.00;50.80
21033;DHT22;10675;47.976;7.824;2023-07-13T12:41:15;26.90;53.80
21033;DHT22;10675;47.976;7.824;2023-07-13T12:43:40;26.80;52.80
21033;DHT22;10675;47.976;7.824;2023-07-13T12:46:18;26.50;53.20
21033;DHT22;10675;47.976;7.824;2023-07-13T12:48:49;26.10;53.40
21033;DHT22;10675;47.976;7.824;2023-07-13T12:51:16;26.50;53.10
21033;DHT22;10675;47.976;7.824;2023-07-13T12:53:48;26.80;52.60
21033;DHT22;10675;47.976;7.824;2023-07-13T12:56:26;26.90;52.40
21033;DHT22;10675;47.976;7.824;2023-07-13T12:58:58;27.30;52.70
21033;DHT22;10675;47.976;7.824;2023-07-13T13:01:29;27.90;50.90
21033;DHT22;10675;47.976;7.824;2023-07-13T13:03:56;28.00;51.10
21033;DHT22;10675;47.976;7.824;2023-07-13T13:06:28;28.20;50.00
21033;DHT22;10675;47.976;7.824;2023-07-13T13:08:59;28.30;50.30
21033;DHT22;10675;47.976;7.824;2023-07-13T13:11:26;28.40;49.40
21033;DHT22;10675;47.976;7.824;2023-07-13T13:13:52;28.00;50.00
21033;DHT22;10675;47.976;7.824;2023-07-13T13:16:24;27.40;51.00
21033;DHT22;10675;47.976;7.824;2023-07-13T13:18:56;26.70;50.80
21033;DHT22;10675;47.976;7.824;2023-07-13T13:21:23;26.50;50.50
21033;DHT22;10675;47.976;7.824;2023-07-13T13:23:50;26.80;49.60
21033;DHT22;10675;47.976;7.824;2023-07-13T13:26:18;26.90;51.00
21033;DHT22;10675;47.976;7.824;2023-07-13T13:28:44;27.30;50.40
21033;DHT22;10675;47.976;7.824;2023-07-13T13:31:11;27.70;51.40
21033;DHT22;10675;47.976;7.824;2023-07-13T13:33:39;27.40;49.50
21033;DHT22;10675;47.976;7.824;2023-07-13T13:36:19;27.20;49.90
21033;DHT22;10675;47.976;7.824;2023-07-13T13:38:45;27.90;50.30
21033;DHT22;10675;47.976;7.824;2023-07-13T13:41:13;28.30;49.70
21033;DHT22;10675;47.976;7.824;2023-07-13T13:43:39;28.00;50.50
21033;DHT22;10675;47.976;7.824;2023-07-13T13:46:15;27.50;51.70
21033;DHT22;10675;47.976;7.824;2023-07-13T13:48:41;26.90;52.80
21033;DHT22;10675;47.976;7.824;2023-07-13T13:51:15;26.50;53.00
21033;DHT22;10675;47.976;7.824;2023-07-13T13:53:41;26.30;53.20
21033;DHT22;10675;47.976;7.824;2023-07-13T13:56:07;26.20;52.90
21033;DHT22;10675;47.976;7.824;2023-07-13T13:58:32;26.60;53.90
21033;DHT22;10675;47.976;7.824;2023-07-13T14:00:58;27.30;52.40
21033;DHT22;10675;47.976;7.824;2023-07-13T14:03:24;28.00;52.30
21033;DHT22;10675;47.976;7.824;2023-07-13T14:05:49;28.10;50.80
21033;DHT22;10675;47.976;7.824;2023-07-13T14:08:20;27.80;52.30
21033;DHT22;10675;47.976;7.824;2023-07-13T14:10:48;27.20;52.00
21033;DHT22;10675;47.976;7.824;2023-07-13T14:13:21;26.80;53.60
21033;DHT22;10675;47.976;7.824;2023-07-13T14:15:48;26.30;52.40
21033;DHT22;10675;47.976;7.824;2023-07-13T14:18:14;25.90;53.70
21033;DHT22;10675;47.976;7.824;2023-07-13T14:20:47;25.80;54.00
21033;DHT22;10675;47.976;7.824;2023-07-13T14:23:14;25.70;56.10
21033;DHT22;10675;47.976;7.824;2023-07-13T14:25:40;25.60;56.60
21033;DHT22;10675;47.976;7.824;2023-07-13T14:28:23;25.50;55.70
21033;DHT22;10675;47.976;7.824;2023-07-13T14:30:49;25.50;56.40
21033;DHT22;10675;47.976;7.824;2023-07-13T14:33:15;25.50;56.20
21033;DHT22;10675;47.976;7.824;2023-07-13T14:35:41;25.40;56.50
21033;DHT22;10675;47.976;7.824;2023-07-13T14:38:11;25.40;55.40
21033;DHT22;10675;47.976;7.824;2023-07-13T14:40:39;25.30;56.10
21033;DHT22;10675;47.976;7.824;2023-07-13T14:43:07;25.30;56.00
21033;DHT22;10675;47.976;7.824;2023-07-13T14:45:34;25.20;55.70
21033;DHT22;10675;47.976;7.824;2023-07-13T14:48:01;25.20;55.10
21033;DHT22;10675;47.976;7.824;2023-07-13T14:50:30;25.20;55.70
21033;DHT22;10675;47.976;7.824;2023-07-13T14:52:56;25.20;56.90
21033;DHT22;10675;47.976;7.824;2023-07-13T14:55:22;25.20;56.80
21033;DHT22;10675;47.976;7.824;2023-07-13T14:57:49;25.10;57.10
21033;DHT22;10675;47.976;7.824;2023-07-13T15:00:17;25.20;57.10
21033;DHT22;10675;47.976;7.824;2023-07-13T15:02:49;25.20;56.90
21033;DHT22;10675;47.976;7.824;2023-07-13T15:05:21;25.20;57.30
21033;DHT22;10675;47.976;7.824;2023-07-13T15:07:48;25.20;58.90
21033;DHT22;10675;47.976;7.824;2023-07-13T15:10:20;25.20;56.80
21033;DHT22;10675;47.976;7.824;2023-07-13T15:12:46;25.30;57.30
21033;DHT22;10675;47.976;7.824;2023-07-13T15:15:12;25.60;58.10
21033;DHT22;10675;47.976;7.824;2023-07-13T15:17:41;26.00;57.40
21033;DHT22;10675;47.976;7.824;2023-07-13T15:20:17;26.40;56.30
21033;DHT22;10675;47.976;7.824;2023-07-13T15:22:44;26.80;56.10
21033;DHT22;10675;47.976;7.824;2023-07-13T15:25:30;27.00;56.10
21033;DHT22;10675;47.976;7.824;2023-07-13T15:27:57;27.00;55.00
21033;DHT22;10675;47.976;7.824;2023-07-13T15:30:26;26.80;54.70
21033;DHT22;10675;47.976;7.824;2023-07-13T15:32:54;26.80;55.40
21033;DHT22;10675;47.976;7.824;2023-07-13T15:35:25;26.80;55.60
21033;DHT22;10675;47.976;7.824;2023-07-13T15:37:52;26.70;53.20
21033;DHT22;10675;47.976;7.824;2023-07-13T15:40:18;26.40;53.50
21033;DHT22;10675;47.976;7.824;2023-07-13T15:42:47;26.40;55.50
21033;DHT22;10675;47.976;7.824;2023-07-13T15:45:23;26.30;55.60
21033;DHT22;10675;47.976;7.824;2023-07-13T15:47:50;26.10;55.60
21033;DHT22;10675;47.976;7.824;2023-07-13T15:50:19;25.70;58.20
21033;DHT22;10675;47.976;7.824;2023-07-13T15:52:54;25.70;58.00
21033;DHT22;10675;47.976;7.824;2023-07-13T15:55:20;25.60;58.10
21033;DHT22;10675;47.976;7.824;2023-07-13T15:57:51;25.50;56.80
21033;DHT22;10675;47.976;7.824;2023-07-13T16:00:23;25.50;57.30
21033;DHT22;10675;47.976;7.824;2023-07-13T16:02:50;25.50;57.70
21033;DHT22;10675;47.976;7.824;2023-07-13T16:05:16;25.50;57.80
21033;DHT22;10675;47.976;7.824;2023-07-13T16:07:43;25.50;55.80
21033;DHT22;10675;47.976;7.824;2023-07-13T16:10:20;25.60;55.10
21033;DHT22;10675;47.976;7.824;2023-07-13T16:12:46;25.40;55.20
21033;DHT22;10675;47.976;7.824;2023-07-13T16:15:17;25.40;55.90
21033;DHT22;10675;47.976;7.824;2023-07-13T16:17:45;25.30;56.20
21033;DHT22;10675;47.976;7.824;2023-07-13T16:20:11;25.30;55.40
21033;DHT22;10675;47.976;7.824;2023-07-13T16:22:39;25.30;55.10